Cyr Plt, Maine
Current Conditions -  °F | °C
As of 4:54 AM on Tuesday 21 Oct 2014 (Local Time) from KCAR Reporting Station
Clear Clear  
Wind Chill: 24°   Ceiling: Unl
Heat Index: 29°   Visibility: 10mi
Dew Point: 25°   Wind: 5mph
Humidity: 85%   Direction: 220°SW
Pressure: 30.01"   Gusts: NA
Location:  47.123°N, 67.9773°W
Report Text: KCAR 210854Z AUTO 22004KT 10SM CLR M02/M04 A3001 RMK AO2 SLP172 T10171039 51017
Loading
Personal Weather Stations






























Interactive Weather Map
Tropical Storm Tracking
New forecast layout! Learn more

10-Day Weather Forecast

Advertisements
Track Severe Weather on mobile